sensor_id;sensor_type;location;lat;lon;timestamp;P1;durP1;ratioP1;P2;durP2;ratioP2
21281;SDS011;10800;53.096;18.328;2023-12-20T00:09:46;8.40;;;3.73;;
21281;SDS011;10800;53.096;18.328;2023-12-20T00:15:06;9.80;;;4.13;;
21281;SDS011;10800;53.096;18.328;2023-12-20T00:20:36;6.13;;;3.20;;
21281;SDS011;10800;53.096;18.328;2023-12-20T00:26:26;7.03;;;3.40;;
21281;SDS011;10800;53.096;18.328;2023-12-20T00:31:57;6.77;;;3.40;;
21281;SDS011;10800;53.096;18.328;2023-12-20T00:37:41;7.70;;;4.10;;
21281;SDS011;10800;53.096;18.328;2023-12-20T00:42:53;6.50;;;3.40;;
21281;SDS011;10800;53.096;18.328;2023-12-20T00:48:20;5.07;;;3.17;;
21281;SDS011;10800;53.096;18.328;2023-12-20T00:53:42;5.77;;;3.27;;
21281;SDS011;10800;53.096;18.328;2023-12-20T00:59:17;3.00;;;2.37;;
21281;SDS011;10800;53.096;18.328;2023-12-20T01:04:47;3.30;;;2.50;;
21281;SDS011;10800;53.096;18.328;2023-12-20T01:09:57;5.57;;;2.83;;
21281;SDS011;10800;53.096;18.328;2023-12-20T01:15:49;4.53;;;3.10;;
21281;SDS011;10800;53.096;18.328;2023-12-20T01:26:09;7.23;;;2.60;;
21281;SDS011;10800;53.096;18.328;2023-12-20T01:31:40;2.77;;;2.30;;
21281;SDS011;10800;53.096;18.328;2023-12-20T01:36:54;4.27;;;2.53;;
21281;SDS011;10800;53.096;18.328;2023-12-20T01:42:04;4.73;;;2.50;;
21281;SDS011;10800;53.096;18.328;2023-12-20T01:47:17;3.27;;;2.77;;
21281;SDS011;10800;53.096;18.328;2023-12-20T01:53:22;3.57;;;2.53;;
21281;SDS011;10800;53.096;18.328;2023-12-20T01:58:41;5.63;;;2.67;;
21281;SDS011;10800;53.096;18.328;2023-12-20T02:03:52;4.80;;;3.37;;
21281;SDS011;10800;53.096;18.328;2023-12-20T02:09:04;4.37;;;2.57;;
21281;SDS011;10800;53.096;18.328;2023-12-20T02:14:33;3.73;;;2.70;;
21281;SDS011;10800;53.096;18.328;2023-12-20T02:19:46;3.27;;;2.37;;
21281;SDS011;10800;53.096;18.328;2023-12-20T02:25:33;4.13;;;2.40;;
21281;SDS011;10800;53.096;18.328;2023-12-20T02:30:45;4.30;;;2.77;;
21281;SDS011;10800;53.096;18.328;2023-12-20T02:35:58;4.83;;;3.03;;
21281;SDS011;10800;53.096;18.328;2023-12-20T02:41:44;4.03;;;2.37;;
21281;SDS011;10800;53.096;18.328;2023-12-20T02:46:57;3.40;;;2.97;;
21281;SDS011;10800;53.096;18.328;2023-12-20T02:52:12;4.43;;;2.27;;
21281;SDS011;10800;53.096;18.328;2023-12-20T02:57:47;4.50;;;2.80;;
21281;SDS011;10800;53.096;18.328;2023-12-20T03:03:13;3.40;;;2.80;;
21281;SDS011;10800;53.096;18.328;2023-12-20T03:09:20;4.40;;;2.70;;
21281;SDS011;10800;53.096;18.328;2023-12-20T03:14:47;5.93;;;2.87;;
21281;SDS011;10800;53.096;18.328;2023-12-20T03:20:27;4.80;;;2.63;;
21281;SDS011;10800;53.096;18.328;2023-12-20T03:26:20;2.77;;;2.27;;
21281;SDS011;10800;53.096;18.328;2023-12-20T03:31:50;5.83;;;3.17;;
21281;SDS011;10800;53.096;18.328;2023-12-20T03:37:35;3.87;;;2.63;;
21281;SDS011;10800;53.096;18.328;2023-12-20T03:42:44;2.57;;;2.30;;
21281;SDS011;10800;53.096;18.328;2023-12-20T03:48:12;4.77;;;3.33;;
21281;SDS011;10800;53.096;18.328;2023-12-20T03:53:39;9.67;;;2.93;;
21281;SDS011;10800;53.096;18.328;2023-12-20T03:59:04;3.40;;;2.57;;
21281;SDS011;10800;53.096;18.328;2023-12-20T04:04:34;5.30;;;3.27;;
21281;SDS011;10800;53.096;18.328;2023-12-20T04:09:44;5.07;;;3.20;;
21281;SDS011;10800;53.096;18.328;2023-12-20T04:14:58;5.23;;;2.80;;
21281;SDS011;10800;53.096;18.328;2023-12-20T04:20:53;4.77;;;3.23;;
21281;SDS011;10800;53.096;18.328;2023-12-20T04:26:25;4.67;;;3.03;;
21281;SDS011;10800;53.096;18.328;2023-12-20T04:32:25;3.37;;;2.27;;
21281;SDS011;10800;53.096;18.328;2023-12-20T04:37:58;3.27;;;2.33;;
21281;SDS011;10800;53.096;18.328;2023-12-20T04:43:38;8.20;;;3.03;;
21281;SDS011;10800;53.096;18.328;2023-12-20T04:49:40;2.23;;;1.90;;
21281;SDS011;10800;53.096;18.328;2023-12-20T04:55:31;4.80;;;2.57;;
21281;SDS011;10800;53.096;18.328;2023-12-20T05:00:41;3.27;;;1.90;;
21281;SDS011;10800;53.096;18.328;2023-12-20T05:06:02;1.60;;;1.47;;
21281;SDS011;10800;53.096;18.328;2023-12-20T05:22:10;2.00;;;1.73;;
21281;SDS011;10800;53.096;18.328;2023-12-20T05:27:18;3.77;;;1.67;;
21281;SDS011;10800;53.096;18.328;2023-12-20T05:32:32;2.60;;;1.33;;
21281;SDS011;10800;53.096;18.328;2023-12-20T05:38:06;2.30;;;1.80;;
21281;SDS011;10800;53.096;18.328;2023-12-20T05:43:15;1.90;;;1.30;;
21281;SDS011;10800;53.096;18.328;2023-12-20T05:48:48;3.00;;;1.40;;
21281;SDS011;10800;53.096;18.328;2023-12-20T05:54:09;1.10;;;0.90;;
21281;SDS011;10800;53.096;18.328;2023-12-20T05:59:25;1.83;;;1.67;;
21281;SDS011;10800;53.096;18.328;2023-12-20T06:04:46;1.70;;;1.00;;
21281;SDS011;10800;53.096;18.328;2023-12-20T06:10:02;2.63;;;1.30;;
21281;SDS011;10800;53.096;18.328;2023-12-20T06:15:37;1.90;;;1.37;;
21281;SDS011;10800;53.096;18.328;2023-12-20T06:21:21;2.30;;;0.97;;
21281;SDS011;10800;53.096;18.328;2023-12-20T06:26:35;2.83;;;1.37;;
21281;SDS011;10800;53.096;18.328;2023-12-20T06:32:03;1.33;;;1.23;;
21281;SDS011;10800;53.096;18.328;2023-12-20T06:37:30;3.00;;;1.20;;
21281;SDS011;10800;53.096;18.328;2023-12-20T06:42:45;2.80;;;1.80;;
21281;SDS011;10800;53.096;18.328;2023-12-20T06:48:07;3.87;;;1.77;;
21281;SDS011;10800;53.096;18.328;2023-12-20T06:53:27;2.57;;;1.80;;
21281;SDS011;10800;53.096;18.328;2023-12-20T06:58:50;4.40;;;1.83;;
21281;SDS011;10800;53.096;18.328;2023-12-20T07:04:00;3.93;;;1.67;;
21281;SDS011;10800;53.096;18.328;2023-12-20T07:09:20;8.40;;;1.77;;
21281;SDS011;10800;53.096;18.328;2023-12-20T07:14:36;3.07;;;2.23;;
21281;SDS011;10800;53.096;18.328;2023-12-20T07:20:04;2.47;;;1.83;;
21281;SDS011;10800;53.096;18.328;2023-12-20T07:25:17;2.70;;;1.90;;
21281;SDS011;10800;53.096;18.328;2023-12-20T07:30:24;2.70;;;1.93;;
21281;SDS011;10800;53.096;18.328;2023-12-20T07:35:56;2.33;;;1.57;;
21281;SDS011;10800;53.096;18.328;2023-12-20T07:41:13;5.87;;;1.80;;
21281;SDS011;10800;53.096;18.328;2023-12-20T07:46:32;2.63;;;1.60;;
21281;SDS011;10800;53.096;18.328;2023-12-20T07:52:18;11.93;;;5.00;;
21281;SDS011;10800;53.096;18.328;2023-12-20T07:57:32;9.93;;;4.77;;
21281;SDS011;10800;53.096;18.328;2023-12-20T08:02:41;6.93;;;2.40;;
21281;SDS011;10800;53.096;18.328;2023-12-20T08:08:12;3.67;;;1.63;;
21281;SDS011;10800;53.096;18.328;2023-12-20T08:13:19;4.13;;;2.13;;
21281;SDS011;10800;53.096;18.328;2023-12-20T08:18:28;2.97;;;1.80;;
21281;SDS011;10800;53.096;18.328;2023-12-20T08:29:00;2.97;;;1.93;;
21281;SDS011;10800;53.096;18.328;2023-12-20T08:34:12;3.60;;;1.73;;
21281;SDS011;10800;53.096;18.328;2023-12-20T08:39:22;3.60;;;2.23;;
21281;SDS011;10800;53.096;18.328;2023-12-20T08:44:50;19.67;;;5.07;;
21281;SDS011;10800;53.096;18.328;2023-12-20T08:50:28;5.30;;;2.50;;
21281;SDS011;10800;53.096;18.328;2023-12-20T08:56:05;5.40;;;3.03;;
21281;SDS011;10800;53.096;18.328;2023-12-20T09:01:15;6.00;;;2.50;;
21281;SDS011;10800;53.096;18.328;2023-12-20T09:07:05;14.37;;;4.07;;
21281;SDS011;10800;53.096;18.328;2023-12-20T09:12:47;4.00;;;2.87;;
21281;SDS011;10800;53.096;18.328;2023-12-20T09:18:09;4.10;;;2.50;;
21281;SDS011;10800;53.096;18.328;2023-12-20T09:23:36;5.33;;;1.67;;
21281;SDS011;10800;53.096;18.328;2023-12-20T09:28:54;4.10;;;1.80;;
21281;SDS011;10800;53.096;18.328;2023-12-20T09:34:14;7.73;;;2.97;;
21281;SDS011;10800;53.096;18.328;2023-12-20T09:39:30;12.03;;;4.23;;
21281;SDS011;10800;53.096;18.328;2023-12-20T09:44:57;13.10;;;4.53;;
21281;SDS011;10800;53.096;18.328;2023-12-20T09:50:14;8.87;;;2.40;;
21281;SDS011;10800;53.096;18.328;2023-12-20T09:55:31;11.43;;;4.27;;
21281;SDS011;10800;53.096;18.328;2023-12-20T10:00:47;21.27;;;4.17;;
21281;SDS011;10800;53.096;18.328;2023-12-20T10:06:27;6.87;;;2.97;;
21281;SDS011;10800;53.096;18.328;2023-12-20T10:11:39;7.97;;;2.17;;
21281;SDS011;10800;53.096;18.328;2023-12-20T10:16:54;11.40;;;3.03;;
21281;SDS011;10800;53.096;18.328;2023-12-20T10:22:17;3.93;;;2.17;;
21281;SDS011;10800;53.096;18.328;2023-12-20T10:27:32;5.17;;;2.03;;
21281;SDS011;10800;53.096;18.328;2023-12-20T10:33:00;2.27;;;1.87;;
21281;SDS011;10800;53.096;18.328;2023-12-20T10:38:39;2.83;;;1.50;;
21281;SDS011;10800;53.096;18.328;2023-12-20T10:43:48;1.00;;;0.83;;
21281;SDS011;10800;53.096;18.328;2023-12-20T10:48:56;1.90;;;1.30;;
21281;SDS011;10800;53.096;18.328;2023-12-20T10:54:07;3.00;;;1.47;;
21281;SDS011;10800;53.096;18.328;2023-12-20T10:59:19;1.90;;;1.03;;
21281;SDS011;10800;53.096;18.328;2023-12-20T11:04:28;2.97;;;1.53;;
21281;SDS011;10800;53.096;18.328;2023-12-20T11:09:45;5.07;;;1.27;;
21281;SDS011;10800;53.096;18.328;2023-12-20T11:14:57;5.57;;;1.40;;
21281;SDS011;10800;53.096;18.328;2023-12-20T11:20:06;2.60;;;1.73;;
21281;SDS011;10800;53.096;18.328;2023-12-20T11:25:19;1.37;;;1.27;;
21281;SDS011;10800;53.096;18.328;2023-12-20T11:30:30;7.37;;;2.10;;
21281;SDS011;10800;53.096;18.328;2023-12-20T11:35:37;2.73;;;1.20;;
21281;SDS011;10800;53.096;18.328;2023-12-20T11:40:48;5.80;;;2.77;;
21281;SDS011;10800;53.096;18.328;2023-12-20T11:45:56;15.63;;;2.87;;
21281;SDS011;10800;53.096;18.328;2023-12-20T11:51:14;7.87;;;1.47;;
21281;SDS011;10800;53.096;18.328;2023-12-20T11:56:24;2.93;;;1.10;;
21281;SDS011;10800;53.096;18.328;2023-12-20T12:01:32;1.30;;;1.13;;
21281;SDS011;10800;53.096;18.328;2023-12-20T12:06:40;3.80;;;0.90;;
21281;SDS011;10800;53.096;18.328;2023-12-20T12:11:49;3.33;;;1.13;;
21281;SDS011;10800;53.096;18.328;2023-12-20T12:17:00;3.63;;;0.90;;
21281;SDS011;10800;53.096;18.328;2023-12-20T12:22:17;1.37;;;0.70;;
21281;SDS011;10800;53.096;18.328;2023-12-20T12:27:30;6.80;;;1.90;;
21281;SDS011;10800;53.096;18.328;2023-12-20T12:32:42;0.87;;;0.87;;
21281;SDS011;10800;53.096;18.328;2023-12-20T12:38:07;1.27;;;0.83;;
21281;SDS011;10800;53.096;18.328;2023-12-20T12:43:36;5.67;;;0.97;;
21281;SDS011;10800;53.096;18.328;2023-12-20T12:49:07;2.07;;;0.90;;
21281;SDS011;10800;53.096;18.328;2023-12-20T12:54:44;0.60;;;0.57;;
21281;SDS011;10800;53.096;18.328;2023-12-20T13:00:14;1.53;;;1.07;;
21281;SDS011;10800;53.096;18.328;2023-12-20T13:05:51;1.70;;;1.37;;
21281;SDS011;10800;53.096;18.328;2023-12-20T13:11:10;2.50;;;1.00;;
21281;SDS011;10800;53.096;18.328;2023-12-20T13:16:26;3.33;;;0.80;;
21281;SDS011;10800;53.096;18.328;2023-12-20T13:21:37;1.13;;;1.00;;
21281;SDS011;10800;53.096;18.328;2023-12-20T13:26:48;0.70;;;0.70;;
21281;SDS011;10800;53.096;18.328;2023-12-20T13:32:06;3.57;;;1.30;;
21281;SDS011;10800;53.096;18.328;2023-12-20T13:37:22;1.00;;;0.83;;
21281;SDS011;10800;53.096;18.328;2023-12-20T13:42:50;5.33;;;0.97;;
21281;SDS011;10800;53.096;18.328;2023-12-20T13:48:21;0.97;;;0.70;;
21281;SDS011;10800;53.096;18.328;2023-12-20T13:53:46;2.33;;;1.00;;
21281;SDS011;10800;53.096;18.328;2023-12-20T13:59:02;2.13;;;1.30;;
21281;SDS011;10800;53.096;18.328;2023-12-20T14:04:30;1.13;;;1.07;;
21281;SDS011;10800;53.096;18.328;2023-12-20T14:10:14;2.90;;;1.50;;
21281;SDS011;10800;53.096;18.328;2023-12-20T14:15:34;1.53;;;1.07;;
21281;SDS011;10800;53.096;18.328;2023-12-20T14:21:27;11.30;;;1.23;;
21281;SDS011;10800;53.096;18.328;2023-12-20T14:27:03;5.67;;;1.30;;
21281;SDS011;10800;53.096;18.328;2023-12-20T14:32:30;2.70;;;0.93;;
21281;SDS011;10800;53.096;18.328;2023-12-20T14:37:50;0.90;;;0.90;;
21281;SDS011;10800;53.096;18.328;2023-12-20T14:43:22;3.20;;;1.93;;
21281;SDS011;10800;53.096;18.328;2023-12-20T14:48:54;8.53;;;2.03;;
21281;SDS011;10800;53.096;18.328;2023-12-20T14:54:26;4.07;;;1.60;;
21281;SDS011;10800;53.096;18.328;2023-12-20T15:05:59;2.40;;;0.83;;
21281;SDS011;10800;53.096;18.328;2023-12-20T15:11:12;5.40;;;1.30;;
21281;SDS011;10800;53.096;18.328;2023-12-20T15:16:29;1.17;;;0.93;;
21281;SDS011;10800;53.096;18.328;2023-12-20T15:22:23;5.23;;;1.73;;
21281;SDS011;10800;53.096;18.328;2023-12-20T15:27:36;2.23;;;1.23;;
21281;SDS011;10800;53.096;18.328;2023-12-20T15:32:44;3.83;;;1.90;;
21281;SDS011;10800;53.096;18.328;2023-12-20T15:37:50;1.53;;;1.40;;
21281;SDS011;10800;53.096;18.328;2023-12-20T15:42:56;2.87;;;1.30;;
21281;SDS011;10800;53.096;18.328;2023-12-20T15:48:08;4.43;;;2.13;;
21281;SDS011;10800;53.096;18.328;2023-12-20T15:53:22;4.53;;;1.57;;
21281;SDS011;10800;53.096;18.328;2023-12-20T15:58:30;3.57;;;0.90;;
21281;SDS011;10800;53.096;18.328;2023-12-20T16:03:53;2.90;;;1.10;;
21281;SDS011;10800;53.096;18.328;2023-12-20T16:09:25;1.27;;;0.93;;
21281;SDS011;10800;53.096;18.328;2023-12-20T16:14:32;1.03;;;0.93;;
21281;SDS011;10800;53.096;18.328;2023-12-20T16:20:02;5.87;;;1.07;;
21281;SDS011;10800;53.096;18.328;2023-12-20T16:25:45;6.00;;;1.60;;
21281;SDS011;10800;53.096;18.328;2023-12-20T16:30:51;2.00;;;0.90;;
21281;SDS011;10800;53.096;18.328;2023-12-20T16:36:18;2.27;;;0.93;;
21281;SDS011;10800;53.096;18.328;2023-12-20T16:41:24;3.90;;;1.00;;
21281;SDS011;10800;53.096;18.328;2023-12-20T16:46:48;2.20;;;1.60;;
21281;SDS011;10800;53.096;18.328;2023-12-20T17:10:18;2.20;;;1.27;;
21281;SDS011;10800;53.096;18.328;2023-12-20T17:16:12;3.97;;;1.50;;
21281;SDS011;10800;53.096;18.328;2023-12-20T17:27:23;6.50;;;1.80;;
21281;SDS011;10800;53.096;18.328;2023-12-20T17:32:41;19.57;;;4.90;;
21281;SDS011;10800;53.096;18.328;2023-12-20T17:38:32;6.20;;;0.70;;
21281;SDS011;10800;53.096;18.328;2023-12-20T17:44:26;1.47;;;1.10;;
21281;SDS011;10800;53.096;18.328;2023-12-20T17:50:09;0.73;;;0.70;;
21281;SDS011;10800;53.096;18.328;2023-12-20T17:55:59;1.17;;;1.00;;
21281;SDS011;10800;53.096;18.328;2023-12-20T18:01:51;0.67;;;0.60;;
21281;SDS011;10800;53.096;18.328;2023-12-20T18:12:37;0.70;;;0.70;;
21281;SDS011;10800;53.096;18.328;2023-12-20T18:17:50;6.30;;;1.13;;
21281;SDS011;10800;53.096;18.328;2023-12-20T18:23:28;2.73;;;0.97;;
21281;SDS011;10800;53.096;18.328;2023-12-20T18:29:04;1.53;;;1.13;;
21281;SDS011;10800;53.096;18.328;2023-12-20T18:34:23;1.43;;;1.10;;
21281;SDS011;10800;53.096;18.328;2023-12-20T18:39:46;1.03;;;0.93;;
21281;SDS011;10800;53.096;18.328;2023-12-20T18:45:10;1.27;;;0.83;;
21281;SDS011;10800;53.096;18.328;2023-12-20T18:50:25;2.00;;;1.30;;
21281;SDS011;10800;53.096;18.328;2023-12-20T18:55:38;2.50;;;1.53;;
21281;SDS011;10800;53.096;18.328;2023-12-20T19:01:45;1.53;;;1.03;;
21281;SDS011;10800;53.096;18.328;2023-12-20T19:07:36;11.57;;;2.27;;
21281;SDS011;10800;53.096;18.328;2023-12-20T19:13:14;5.20;;;2.10;;
21281;SDS011;10800;53.096;18.328;2023-12-20T19:19:00;13.63;;;4.10;;
21281;SDS011;10800;53.096;18.328;2023-12-20T19:24:30;7.17;;;1.67;;
21281;SDS011;10800;53.096;18.328;2023-12-20T19:30:19;2.70;;;1.53;;
21281;SDS011;10800;53.096;18.328;2023-12-20T19:41:59;5.93;;;2.30;;
21281;SDS011;10800;53.096;18.328;2023-12-20T19:48:06;8.50;;;5.37;;
21281;SDS011;10800;53.096;18.328;2023-12-20T19:53:42;2.73;;;1.13;;
21281;SDS011;10800;53.096;18.328;2023-12-20T19:58:58;3.23;;;1.90;;
21281;SDS011;10800;53.096;18.328;2023-12-20T20:04:45;9.33;;;2.10;;
21281;SDS011;10800;53.096;18.328;2023-12-20T20:10:23;6.03;;;2.03;;
21281;SDS011;10800;53.096;18.328;2023-12-20T20:22:22;8.87;;;2.10;;
21281;SDS011;10800;53.096;18.328;2023-12-20T20:28:06;6.30;;;4.70;;
21281;SDS011;10800;53.096;18.328;2023-12-20T20:33:45;13.83;;;3.53;;
21281;SDS011;10800;53.096;18.328;2023-12-20T20:39:24;13.00;;;3.93;;
21281;SDS011;10800;53.096;18.328;2023-12-20T20:45:06;10.47;;;2.83;;
21281;SDS011;10800;53.096;18.328;2023-12-20T21:01:56;8.40;;;2.40;;
21281;SDS011;10800;53.096;18.328;2023-12-20T21:07:05;2.50;;;1.13;;
21281;SDS011;10800;53.096;18.328;2023-12-20T21:12:16;3.03;;;1.63;;
21281;SDS011;10800;53.096;18.328;2023-12-20T21:17:41;5.43;;;1.37;;
21281;SDS011;10800;53.096;18.328;2023-12-20T21:22:51;11.23;;;2.30;;
21281;SDS011;10800;53.096;18.328;2023-12-20T21:27:59;5.03;;;2.23;;
21281;SDS011;10800;53.096;18.328;2023-12-20T21:33:29;7.07;;;1.83;;
21281;SDS011;10800;53.096;18.328;2023-12-20T21:38:50;5.83;;;1.70;;
21281;SDS011;10800;53.096;18.328;2023-12-20T21:44:06;4.47;;;1.47;;
21281;SDS011;10800;53.096;18.328;2023-12-20T21:49:17;8.90;;;2.33;;
21281;SDS011;10800;53.096;18.328;2023-12-20T21:54:51;11.70;;;1.93;;
21281;SDS011;10800;53.096;18.328;2023-12-20T22:00:01;2.83;;;1.53;;
21281;SDS011;10800;53.096;18.328;2023-12-20T22:05:27;3.23;;;1.87;;
21281;SDS011;10800;53.096;18.328;2023-12-20T22:10:34;3.07;;;1.77;;
21281;SDS011;10800;53.096;18.328;2023-12-20T22:15:40;7.63;;;1.90;;
21281;SDS011;10800;53.096;18.328;2023-12-20T22:21:01;2.27;;;1.33;;
21281;SDS011;10800;53.096;18.328;2023-12-20T22:26:08;1.73;;;1.27;;
21281;SDS011;10800;53.096;18.328;2023-12-20T22:31:14;9.30;;;3.00;;
21281;SDS011;10800;53.096;18.328;2023-12-20T22:36:54;5.57;;;1.83;;
21281;SDS011;10800;53.096;18.328;2023-12-20T22:42:05;8.63;;;1.83;;
21281;SDS011;10800;53.096;18.328;2023-12-20T22:47:14;11.33;;;2.77;;
21281;SDS011;10800;53.096;18.328;2023-12-20T22:57:58;9.70;;;2.03;;
21281;SDS011;10800;53.096;18.328;2023-12-20T23:03:06;9.43;;;2.93;;
21281;SDS011;10800;53.096;18.328;2023-12-20T23:08:11;1.57;;;1.30;;
21281;SDS011;10800;53.096;18.328;2023-12-20T23:13:46;1.63;;;1.07;;
21281;SDS011;10800;53.096;18.328;2023-12-20T23:19:20;6.10;;;2.50;;
21281;SDS011;10800;53.096;18.328;2023-12-20T23:25:27;5.47;;;2.07;;
21281;SDS011;10800;53.096;18.328;2023-12-20T23:36:49;1.03;;;0.83;;
21281;SDS011;10800;53.096;18.328;2023-12-20T23:42:20;5.23;;;1.03;;
21281;SDS011;10800;53.096;18.328;2023-12-20T23:47:35;2.67;;;1.17;;
21281;SDS011;10800;53.096;18.328;2023-12-20T23:53:00;5.37;;;1.40;;
21281;SDS011;10800;53.096;18.328;2023-12-20T23:58:32;6.20;;;2.03;;
